sensor_id;sensor_type;location;lat;lon;timestamp;temperature;humidity
52615;DHT22;38508;53.158;6.614;2023-05-16T00:02:17;11.90;99.90
52615;DHT22;38508;53.158;6.614;2023-05-16T00:04:43;12.00;99.90
52615;DHT22;38508;53.158;6.614;2023-05-16T00:07:10;11.90;99.90
52615;DHT22;38508;53.158;6.614;2023-05-16T00:09:37;11.80;99.90
52615;DHT22;38508;53.158;6.614;2023-05-16T00:12:02;11.80;99.90
52615;DHT22;38508;53.158;6.614;2023-05-16T00:14:29;11.80;99.90
52615;DHT22;38508;53.158;6.614;2023-05-16T00:16:54;11.70;99.90
52615;DHT22;38508;53.158;6.614;2023-05-16T00:19:22;11.80;99.90
52615;DHT22;38508;53.158;6.614;2023-05-16T00:21:48;11.80;99.90
52615;DHT22;38508;53.158;6.614;2023-05-16T00:24:14;11.90;99.90
52615;DHT22;38508;53.158;6.614;2023-05-16T00:26:40;11.70;99.90
52615;DHT22;38508;53.158;6.614;2023-05-16T00:29:05;11.60;99.90
52615;DHT22;38508;53.158;6.614;2023-05-16T00:31:31;11.60;99.90
52615;DHT22;38508;53.158;6.614;2023-05-16T00:33:57;11.60;99.90
52615;DHT22;38508;53.158;6.614;2023-05-16T00:36:22;11.70;99.90
52615;DHT22;38508;53.158;6.614;2023-05-16T00:38:48;11.80;99.90
52615;DHT22;38508;53.158;6.614;2023-05-16T00:41:15;11.70;99.90
52615;DHT22;38508;53.158;6.614;2023-05-16T00:43:41;11.60;99.90
52615;DHT22;38508;53.158;6.614;2023-05-16T00:46:06;11.60;99.90
52615;DHT22;38508;53.158;6.614;2023-05-16T00:48:32;11.60;99.90
52615;DHT22;38508;53.158;6.614;2023-05-16T00:50:58;11.60;99.90
52615;DHT22;38508;53.158;6.614;2023-05-16T00:53:24;11.70;99.90
52615;DHT22;38508;53.158;6.614;2023-05-16T00:55:51;11.60;99.90
52615;DHT22;38508;53.158;6.614;2023-05-16T00:58:17;11.60;99.90
52615;DHT22;38508;53.158;6.614;2023-05-16T01:00:44;11.50;99.90
52615;DHT22;38508;53.158;6.614;2023-05-16T01:03:11;11.50;99.90
52615;DHT22;38508;53.158;6.614;2023-05-16T01:05:37;11.30;99.90
52615;DHT22;38508;53.158;6.614;2023-05-16T01:08:03;11.20;99.90
52615;DHT22;38508;53.158;6.614;2023-05-16T01:10:43;11.20;99.90
52615;DHT22;38508;53.158;6.614;2023-05-16T01:13:27;11.20;99.90
52615;DHT22;38508;53.158;6.614;2023-05-16T01:16:08;11.20;99.90
52615;DHT22;38508;53.158;6.614;2023-05-16T01:18:51;11.10;99.90
52615;DHT22;38508;53.158;6.614;2023-05-16T01:21:33;11.10;99.90
52615;DHT22;38508;53.158;6.614;2023-05-16T01:24:12;11.20;99.90
52615;DHT22;38508;53.158;6.614;2023-05-16T01:26:39;11.20;99.90
52615;DHT22;38508;53.158;6.614;2023-05-16T01:29:06;11.00;99.90
52615;DHT22;38508;53.158;6.614;2023-05-16T01:31:32;11.00;99.90
52615;DHT22;38508;53.158;6.614;2023-05-16T01:33:58;11.10;99.90
52615;DHT22;38508;53.158;6.614;2023-05-16T01:44:28;11.10;99.90
52615;DHT22;38508;53.158;6.614;2023-05-16T01:46:58;11.20;99.90
52615;DHT22;38508;53.158;6.614;2023-05-16T01:49:34;11.10;99.90
52615;DHT22;38508;53.158;6.614;2023-05-16T01:52:06;11.30;99.90
52615;DHT22;38508;53.158;6.614;2023-05-16T01:54:32;11.30;99.90
52615;DHT22;38508;53.158;6.614;2023-05-16T01:57:03;11.30;99.90
52615;DHT22;38508;53.158;6.614;2023-05-16T01:59:29;11.20;99.90
52615;DHT22;38508;53.158;6.614;2023-05-16T02:01:56;11.20;99.90
52615;DHT22;38508;53.158;6.614;2023-05-16T02:04:22;11.10;99.90
52615;DHT22;38508;53.158;6.614;2023-05-16T02:06:49;11.00;99.90
52615;DHT22;38508;53.158;6.614;2023-05-16T02:09:15;11.10;99.90
52615;DHT22;38508;53.158;6.614;2023-05-16T02:11:41;11.10;99.90
52615;DHT22;38508;53.158;6.614;2023-05-16T02:14:06;11.00;99.90
52615;DHT22;38508;53.158;6.614;2023-05-16T02:16:33;11.00;99.90
52615;DHT22;38508;53.158;6.614;2023-05-16T02:18:58;11.10;99.90
52615;DHT22;38508;53.158;6.614;2023-05-16T02:21:24;11.00;99.90
52615;DHT22;38508;53.158;6.614;2023-05-16T02:23:50;11.00;99.90
52615;DHT22;38508;53.158;6.614;2023-05-16T02:26:15;11.10;99.90
52615;DHT22;38508;53.158;6.614;2023-05-16T02:28:41;11.10;99.90
52615;DHT22;38508;53.158;6.614;2023-05-16T02:31:07;11.20;99.90
52615;DHT22;38508;53.158;6.614;2023-05-16T02:33:32;11.20;99.90
52615;DHT22;38508;53.158;6.614;2023-05-16T02:35:59;11.30;99.90
52615;DHT22;38508;53.158;6.614;2023-05-16T02:38:25;11.30;99.90
52615;DHT22;38508;53.158;6.614;2023-05-16T02:40:50;11.20;99.90
52615;DHT22;38508;53.158;6.614;2023-05-16T02:43:16;11.10;99.90
52615;DHT22;38508;53.158;6.614;2023-05-16T02:45:42;11.20;99.90
52615;DHT22;38508;53.158;6.614;2023-05-16T02:48:07;11.10;99.90
52615;DHT22;38508;53.158;6.614;2023-05-16T02:50:33;11.20;99.90
52615;DHT22;38508;53.158;6.614;2023-05-16T02:52:59;11.30;99.90
52615;DHT22;38508;53.158;6.614;2023-05-16T02:55:27;11.20;99.90
52615;DHT22;38508;53.158;6.614;2023-05-16T02:57:53;11.10;99.90
52615;DHT22;38508;53.158;6.614;2023-05-16T03:00:19;11.10;99.90
52615;DHT22;38508;53.158;6.614;2023-05-16T03:02:45;11.10;99.90
52615;DHT22;38508;53.158;6.614;2023-05-16T03:05:11;11.10;99.90
52615;DHT22;38508;53.158;6.614;2023-05-16T03:07:38;11.10;99.90
52615;DHT22;38508;53.158;6.614;2023-05-16T03:10:04;11.10;99.90
52615;DHT22;38508;53.158;6.614;2023-05-16T03:12:29;11.10;99.90
52615;DHT22;38508;53.158;6.614;2023-05-16T03:14:55;11.00;99.90
52615;DHT22;38508;53.158;6.614;2023-05-16T03:17:21;11.10;99.90
52615;DHT22;38508;53.158;6.614;2023-05-16T03:19:47;11.10;99.90
52615;DHT22;38508;53.158;6.614;2023-05-16T03:22:12;11.20;99.90
52615;DHT22;38508;53.158;6.614;2023-05-16T03:24:38;11.10;99.90
52615;DHT22;38508;53.158;6.614;2023-05-16T03:27:04;11.20;99.90
52615;DHT22;38508;53.158;6.614;2023-05-16T03:29:30;11.10;99.90
52615;DHT22;38508;53.158;6.614;2023-05-16T03:31:56;11.20;99.90
52615;DHT22;38508;53.158;6.614;2023-05-16T03:34:21;11.20;99.90
52615;DHT22;38508;53.158;6.614;2023-05-16T03:36:48;11.20;99.90
52615;DHT22;38508;53.158;6.614;2023-05-16T03:39:15;11.10;99.90
52615;DHT22;38508;53.158;6.614;2023-05-16T03:41:41;11.00;99.90
52615;DHT22;38508;53.158;6.614;2023-05-16T03:44:07;11.00;99.90
52615;DHT22;38508;53.158;6.614;2023-05-16T03:46:34;11.00;99.90
52615;DHT22;38508;53.158;6.614;2023-05-16T03:49:00;10.90;99.90
52615;DHT22;38508;53.158;6.614;2023-05-16T03:51:26;10.80;99.90
52615;DHT22;38508;53.158;6.614;2023-05-16T03:53:52;10.80;99.90
52615;DHT22;38508;53.158;6.614;2023-05-16T03:56:18;10.70;99.90
52615;DHT22;38508;53.158;6.614;2023-05-16T03:58:44;10.70;99.90
52615;DHT22;38508;53.158;6.614;2023-05-16T04:01:10;10.60;99.90
52615;DHT22;38508;53.158;6.614;2023-05-16T04:03:35;10.50;99.90
52615;DHT22;38508;53.158;6.614;2023-05-16T04:06:03;10.50;99.90
52615;DHT22;38508;53.158;6.614;2023-05-16T04:08:29;10.50;99.90
52615;DHT22;38508;53.158;6.614;2023-05-16T04:10:55;10.50;99.90
52615;DHT22;38508;53.158;6.614;2023-05-16T04:13:21;10.80;99.90
52615;DHT22;38508;53.158;6.614;2023-05-16T04:15:47;10.90;99.90
52615;DHT22;38508;53.158;6.614;2023-05-16T04:18:12;10.90;99.90
52615;DHT22;38508;53.158;6.614;2023-05-16T04:20:38;11.00;99.90
52615;DHT22;38508;53.158;6.614;2023-05-16T04:23:04;11.00;99.90
52615;DHT22;38508;53.158;6.614;2023-05-16T04:25:30;10.90;99.90
52615;DHT22;38508;53.158;6.614;2023-05-16T04:27:55;10.80;99.90
52615;DHT22;38508;53.158;6.614;2023-05-16T04:30:21;10.80;99.90
52615;DHT22;38508;53.158;6.614;2023-05-16T04:32:47;10.70;99.90
52615;DHT22;38508;53.158;6.614;2023-05-16T04:35:13;10.70;99.90
52615;DHT22;38508;53.158;6.614;2023-05-16T04:37:38;10.80;99.90
52615;DHT22;38508;53.158;6.614;2023-05-16T04:40:05;10.60;99.90
52615;DHT22;38508;53.158;6.614;2023-05-16T04:42:32;10.60;99.90
52615;DHT22;38508;53.158;6.614;2023-05-16T04:44:57;10.70;99.90
52615;DHT22;38508;53.158;6.614;2023-05-16T04:47:23;10.40;99.90
52615;DHT22;38508;53.158;6.614;2023-05-16T04:49:49;10.50;99.90
52615;DHT22;38508;53.158;6.614;2023-05-16T04:52:15;10.50;99.90
52615;DHT22;38508;53.158;6.614;2023-05-16T04:54:40;10.60;99.90
52615;DHT22;38508;53.158;6.614;2023-05-16T04:57:06;10.70;99.90
52615;DHT22;38508;53.158;6.614;2023-05-16T04:59:32;10.70;99.90
52615;DHT22;38508;53.158;6.614;2023-05-16T05:01:58;10.70;99.90
52615;DHT22;38508;53.158;6.614;2023-05-16T05:04:23;10.80;99.90
52615;DHT22;38508;53.158;6.614;2023-05-16T05:06:49;10.90;99.90
52615;DHT22;38508;53.158;6.614;2023-05-16T05:09:15;10.90;99.90
52615;DHT22;38508;53.158;6.614;2023-05-16T05:11:41;11.00;99.90
52615;DHT22;38508;53.158;6.614;2023-05-16T05:14:07;10.80;99.90
52615;DHT22;38508;53.158;6.614;2023-05-16T05:16:33;10.60;99.90
52615;DHT22;38508;53.158;6.614;2023-05-16T05:18:59;10.60;99.90
52615;DHT22;38508;53.158;6.614;2023-05-16T05:21:25;10.50;99.90
52615;DHT22;38508;53.158;6.614;2023-05-16T05:23:50;10.60;99.90
52615;DHT22;38508;53.158;6.614;2023-05-16T05:26:17;10.60;99.90
52615;DHT22;38508;53.158;6.614;2023-05-16T05:28:42;10.60;99.90
52615;DHT22;38508;53.158;6.614;2023-05-16T05:31:08;10.60;99.90
52615;DHT22;38508;53.158;6.614;2023-05-16T05:33:34;10.60;99.90
52615;DHT22;38508;53.158;6.614;2023-05-16T05:35:59;10.80;99.90
52615;DHT22;38508;53.158;6.614;2023-05-16T05:38:25;11.00;99.90
52615;DHT22;38508;53.158;6.614;2023-05-16T05:40:51;11.00;99.90
52615;DHT22;38508;53.158;6.614;2023-05-16T05:43:16;11.10;99.90
52615;DHT22;38508;53.158;6.614;2023-05-16T05:45:43;11.30;99.90
52615;DHT22;38508;53.158;6.614;2023-05-16T05:48:08;11.30;99.90
52615;DHT22;38508;53.158;6.614;2023-05-16T05:50:35;11.30;99.90
52615;DHT22;38508;53.158;6.614;2023-05-16T05:53:01;11.40;99.90
52615;DHT22;38508;53.158;6.614;2023-05-16T05:55:27;11.60;99.90
52615;DHT22;38508;53.158;6.614;2023-05-16T05:57:52;11.50;99.90
52615;DHT22;38508;53.158;6.614;2023-05-16T06:00:18;11.80;99.90
52615;DHT22;38508;53.158;6.614;2023-05-16T06:02:44;11.70;99.90
52615;DHT22;38508;53.158;6.614;2023-05-16T06:05:10;11.80;99.90
52615;DHT22;38508;53.158;6.614;2023-05-16T06:07:35;11.90;99.90
52615;DHT22;38508;53.158;6.614;2023-05-16T06:10:01;12.00;99.90
52615;DHT22;38508;53.158;6.614;2023-05-16T06:12:30;12.20;99.90
52615;DHT22;38508;53.158;6.614;2023-05-16T06:14:55;12.30;99.90
52615;DHT22;38508;53.158;6.614;2023-05-16T06:17:21;12.20;99.90
52615;DHT22;38508;53.158;6.614;2023-05-16T06:19:47;12.30;99.90
52615;DHT22;38508;53.158;6.614;2023-05-16T06:22:12;12.30;99.90
52615;DHT22;38508;53.158;6.614;2023-05-16T06:24:39;12.20;99.90
52615;DHT22;38508;53.158;6.614;2023-05-16T06:27:05;12.30;99.90
52615;DHT22;38508;53.158;6.614;2023-05-16T06:29:31;12.40;99.90
52615;DHT22;38508;53.158;6.614;2023-05-16T06:31:57;12.50;99.90
52615;DHT22;38508;53.158;6.614;2023-05-16T06:34:23;12.40;99.90
52615;DHT22;38508;53.158;6.614;2023-05-16T06:36:55;12.50;99.90
52615;DHT22;38508;53.158;6.614;2023-05-16T06:39:21;12.40;99.90
52615;DHT22;38508;53.158;6.614;2023-05-16T06:41:47;12.40;99.90
52615;DHT22;38508;53.158;6.614;2023-05-16T06:44:12;12.10;99.90
52615;DHT22;38508;53.158;6.614;2023-05-16T06:46:38;11.90;99.90
52615;DHT22;38508;53.158;6.614;2023-05-16T06:49:04;11.90;99.90
52615;DHT22;38508;53.158;6.614;2023-05-16T06:51:29;12.00;99.90
52615;DHT22;38508;53.158;6.614;2023-05-16T06:53:56;12.10;99.90
52615;DHT22;38508;53.158;6.614;2023-05-16T06:56:22;12.20;99.90
52615;DHT22;38508;53.158;6.614;2023-05-16T06:58:48;12.30;99.90
52615;DHT22;38508;53.158;6.614;2023-05-16T07:01:14;12.50;99.90
52615;DHT22;38508;53.158;6.614;2023-05-16T07:03:40;12.50;99.90
52615;DHT22;38508;53.158;6.614;2023-05-16T07:06:06;12.70;99.90
52615;DHT22;38508;53.158;6.614;2023-05-16T07:08:32;12.70;99.90
52615;DHT22;38508;53.158;6.614;2023-05-16T07:10:57;12.60;99.90
52615;DHT22;38508;53.158;6.614;2023-05-16T07:13:23;12.40;99.90
52615;DHT22;38508;53.158;6.614;2023-05-16T07:15:49;12.40;99.90
52615;DHT22;38508;53.158;6.614;2023-05-16T07:18:14;12.50;99.90
52615;DHT22;38508;53.158;6.614;2023-05-16T07:20:40;12.70;99.90
52615;DHT22;38508;53.158;6.614;2023-05-16T07:23:06;12.80;99.90
52615;DHT22;38508;53.158;6.614;2023-05-16T07:25:32;12.80;99.90
52615;DHT22;38508;53.158;6.614;2023-05-16T07:27:57;12.80;99.90
52615;DHT22;38508;53.158;6.614;2023-05-16T07:30:24;12.90;99.90
52615;DHT22;38508;53.158;6.614;2023-05-16T07:32:49;13.00;99.90
52615;DHT22;38508;53.158;6.614;2023-05-16T07:35:15;12.80;99.90
52615;DHT22;38508;53.158;6.614;2023-05-16T07:37:41;12.60;99.90
52615;DHT22;38508;53.158;6.614;2023-05-16T07:40:09;12.70;99.90
52615;DHT22;38508;53.158;6.614;2023-05-16T07:42:34;12.60;99.90
52615;DHT22;38508;53.158;6.614;2023-05-16T07:45:00;12.60;99.90
52615;DHT22;38508;53.158;6.614;2023-05-16T07:47:27;12.70;99.90
52615;DHT22;38508;53.158;6.614;2023-05-16T07:49:52;12.80;99.90
52615;DHT22;38508;53.158;6.614;2023-05-16T07:52:18;12.80;99.90
52615;DHT22;38508;53.158;6.614;2023-05-16T07:54:45;12.80;99.90
52615;DHT22;38508;53.158;6.614;2023-05-16T07:57:13;12.80;99.90
52615;DHT22;38508;53.158;6.614;2023-05-16T07:59:39;13.10;99.90
52615;DHT22;38508;53.158;6.614;2023-05-16T08:02:05;13.30;99.90
52615;DHT22;38508;53.158;6.614;2023-05-16T08:04:31;13.40;99.90
52615;DHT22;38508;53.158;6.614;2023-05-16T08:06:57;13.50;99.90
52615;DHT22;38508;53.158;6.614;2023-05-16T08:09:22;13.50;99.90
52615;DHT22;38508;53.158;6.614;2023-05-16T08:11:48;13.60;99.90
52615;DHT22;38508;53.158;6.614;2023-05-16T08:14:14;13.30;99.90
52615;DHT22;38508;53.158;6.614;2023-05-16T08:16:39;13.00;99.90
52615;DHT22;38508;53.158;6.614;2023-05-16T08:19:06;12.80;99.90
52615;DHT22;38508;53.158;6.614;2023-05-16T08:21:31;13.00;99.90
52615;DHT22;38508;53.158;6.614;2023-05-16T08:23:57;13.30;99.90
52615;DHT22;38508;53.158;6.614;2023-05-16T08:26:24;13.60;99.90
52615;DHT22;38508;53.158;6.614;2023-05-16T08:28:49;13.50;99.90
52615;DHT22;38508;53.158;6.614;2023-05-16T08:31:15;13.10;99.90
52615;DHT22;38508;53.158;6.614;2023-05-16T08:33:41;12.80;99.90
52615;DHT22;38508;53.158;6.614;2023-05-16T08:36:08;12.50;99.90
52615;DHT22;38508;53.158;6.614;2023-05-16T08:38:34;12.60;99.90
52615;DHT22;38508;53.158;6.614;2023-05-16T08:41:00;12.80;99.90
52615;DHT22;38508;53.158;6.614;2023-05-16T08:43:25;13.10;99.90
52615;DHT22;38508;53.158;6.614;2023-05-16T08:45:51;13.30;99.90
52615;DHT22;38508;53.158;6.614;2023-05-16T08:48:20;13.40;99.90
52615;DHT22;38508;53.158;6.614;2023-05-16T08:50:47;13.70;99.90
52615;DHT22;38508;53.158;6.614;2023-05-16T08:53:14;13.80;99.90
52615;DHT22;38508;53.158;6.614;2023-05-16T08:55:43;13.90;99.90
52615;DHT22;38508;53.158;6.614;2023-05-16T08:58:10;13.70;99.90
52615;DHT22;38508;53.158;6.614;2023-05-16T09:00:37;13.50;99.90
52615;DHT22;38508;53.158;6.614;2023-05-16T09:03:04;13.20;99.90
52615;DHT22;38508;53.158;6.614;2023-05-16T09:05:30;12.90;99.90
52615;DHT22;38508;53.158;6.614;2023-05-16T09:07:56;13.10;99.90
52615;DHT22;38508;53.158;6.614;2023-05-16T09:10:22;13.50;99.90
52615;DHT22;38508;53.158;6.614;2023-05-16T09:12:47;13.40;99.90
52615;DHT22;38508;53.158;6.614;2023-05-16T09:15:13;13.50;99.90
52615;DHT22;38508;53.158;6.614;2023-05-16T09:17:44;13.90;99.90
52615;DHT22;38508;53.158;6.614;2023-05-16T09:20:14;13.90;99.90
52615;DHT22;38508;53.158;6.614;2023-05-16T09:22:52;13.70;99.90
52615;DHT22;38508;53.158;6.614;2023-05-16T09:25:19;13.70;99.90
52615;DHT22;38508;53.158;6.614;2023-05-16T09:27:46;13.90;99.90
52615;DHT22;38508;53.158;6.614;2023-05-16T09:30:14;13.90;99.90
52615;DHT22;38508;53.158;6.614;2023-05-16T09:32:44;13.80;99.90
52615;DHT22;38508;53.158;6.614;2023-05-16T09:35:14;13.80;99.90
52615;DHT22;38508;53.158;6.614;2023-05-16T09:37:47;14.20;99.90
52615;DHT22;38508;53.158;6.614;2023-05-16T09:40:14;14.50;99.90
52615;DHT22;38508;53.158;6.614;2023-05-16T09:42:41;14.50;99.90
52615;DHT22;38508;53.158;6.614;2023-05-16T09:45:13;14.20;99.90
52615;DHT22;38508;53.158;6.614;2023-05-16T09:47:39;13.80;99.90
52615;DHT22;38508;53.158;6.614;2023-05-16T09:50:13;13.80;99.90
52615;DHT22;38508;53.158;6.614;2023-05-16T09:52:41;13.90;99.90
52615;DHT22;38508;53.158;6.614;2023-05-16T09:55:07;14.00;99.90
52615;DHT22;38508;53.158;6.614;2023-05-16T09:57:36;14.40;99.90
52615;DHT22;38508;53.158;6.614;2023-05-16T10:00:09;14.90;99.90
52615;DHT22;38508;53.158;6.614;2023-05-16T10:02:38;15.00;99.90
52615;DHT22;38508;53.158;6.614;2023-05-16T10:05:05;15.30;99.90
52615;DHT22;38508;53.158;6.614;2023-05-16T10:07:31;15.20;99.90
52615;DHT22;38508;53.158;6.614;2023-05-16T10:10:00;15.00;99.90
52615;DHT22;38508;53.158;6.614;2023-05-16T10:12:29;14.80;99.90
52615;DHT22;38508;53.158;6.614;2023-05-16T10:14:56;14.50;99.90
52615;DHT22;38508;53.158;6.614;2023-05-16T10:17:24;14.50;99.90
52615;DHT22;38508;53.158;6.614;2023-05-16T10:19:53;14.80;99.90
52615;DHT22;38508;53.158;6.614;2023-05-16T10:22:19;14.90;99.90
52615;DHT22;38508;53.158;6.614;2023-05-16T10:27:32;14.40;99.90
52615;DHT22;38508;53.158;6.614;2023-05-16T10:29:58;14.40;99.90
52615;DHT22;38508;53.158;6.614;2023-05-16T10:32:25;14.10;99.90
52615;DHT22;38508;53.158;6.614;2023-05-16T10:34:52;14.00;99.90
52615;DHT22;38508;53.158;6.614;2023-05-16T10:37:20;14.40;99.90
52615;DHT22;38508;53.158;6.614;2023-05-16T10:39:45;14.80;99.90
52615;DHT22;38508;53.158;6.614;2023-05-16T10:42:11;15.40;99.90
52615;DHT22;38508;53.158;6.614;2023-05-16T10:44:42;15.30;99.90
52615;DHT22;38508;53.158;6.614;2023-05-16T10:47:08;15.40;99.90
52615;DHT22;38508;53.158;6.614;2023-05-16T10:49:34;15.70;99.90
52615;DHT22;38508;53.158;6.614;2023-05-16T10:52:10;15.90;99.90
52615;DHT22;38508;53.158;6.614;2023-05-16T10:54:51;16.30;99.90
52615;DHT22;38508;53.158;6.614;2023-05-16T10:57:22;16.50;99.90
52615;DHT22;38508;53.158;6.614;2023-05-16T10:59:49;16.30;99.90
52615;DHT22;38508;53.158;6.614;2023-05-16T11:02:27;16.10;99.90
52615;DHT22;38508;53.158;6.614;2023-05-16T11:04:58;16.00;99.90
52615;DHT22;38508;53.158;6.614;2023-05-16T11:07:25;16.00;99.90
52615;DHT22;38508;53.158;6.614;2023-05-16T11:10:14;16.00;99.90
52615;DHT22;38508;53.158;6.614;2023-05-16T11:12:45;15.50;99.90
52615;DHT22;38508;53.158;6.614;2023-05-16T11:15:30;15.00;99.90
52615;DHT22;38508;53.158;6.614;2023-05-16T11:18:04;15.00;99.90
52615;DHT22;38508;53.158;6.614;2023-05-16T11:20:35;15.60;99.90
52615;DHT22;38508;53.158;6.614;2023-05-16T11:23:21;16.00;99.90
52615;DHT22;38508;53.158;6.614;2023-05-16T11:25:52;16.10;99.90
52615;DHT22;38508;53.158;6.614;2023-05-16T11:28:19;16.30;99.90
52615;DHT22;38508;53.158;6.614;2023-05-16T11:30:47;16.00;99.90
52615;DHT22;38508;53.158;6.614;2023-05-16T11:33:17;15.70;99.90
52615;DHT22;38508;53.158;6.614;2023-05-16T11:35:43;15.50;99.90
52615;DHT22;38508;53.158;6.614;2023-05-16T11:38:23;15.40;99.90
52615;DHT22;38508;53.158;6.614;2023-05-16T11:40:49;15.20;99.90
52615;DHT22;38508;53.158;6.614;2023-05-16T11:43:17;15.30;99.90
52615;DHT22;38508;53.158;6.614;2023-05-16T11:45:44;15.20;99.90
52615;DHT22;38508;53.158;6.614;2023-05-16T11:48:10;14.90;99.90
52615;DHT22;38508;53.158;6.614;2023-05-16T11:50:36;14.70;99.90
52615;DHT22;38508;53.158;6.614;2023-05-16T11:53:02;14.70;99.90
52615;DHT22;38508;53.158;6.614;2023-05-16T11:55:29;15.00;99.90
52615;DHT22;38508;53.158;6.614;2023-05-16T11:57:56;15.60;99.90
52615;DHT22;38508;53.158;6.614;2023-05-16T12:00:23;15.80;99.90
52615;DHT22;38508;53.158;6.614;2023-05-16T12:02:51;15.80;99.90
52615;DHT22;38508;53.158;6.614;2023-05-16T12:05:18;15.70;99.90
52615;DHT22;38508;53.158;6.614;2023-05-16T12:07:46;15.90;99.90
52615;DHT22;38508;53.158;6.614;2023-05-16T12:10:14;16.20;99.90
52615;DHT22;38508;53.158;6.614;2023-05-16T12:12:42;16.40;99.90
52615;DHT22;38508;53.158;6.614;2023-05-16T12:15:10;16.60;99.90
52615;DHT22;38508;53.158;6.614;2023-05-16T12:17:37;16.70;99.90
52615;DHT22;38508;53.158;6.614;2023-05-16T12:20:04;16.80;99.90
52615;DHT22;38508;53.158;6.614;2023-05-16T12:22:31;16.60;99.90
52615;DHT22;38508;53.158;6.614;2023-05-16T12:25:29;16.40;99.90
52615;DHT22;38508;53.158;6.614;2023-05-16T12:27:57;16.00;99.90
52615;DHT22;38508;53.158;6.614;2023-05-16T12:30:24;15.90;99.90
52615;DHT22;38508;53.158;6.614;2023-05-16T12:32:57;15.70;99.90
52615;DHT22;38508;53.158;6.614;2023-05-16T12:35:24;15.80;99.90
52615;DHT22;38508;53.158;6.614;2023-05-16T12:37:51;15.70;99.90
52615;DHT22;38508;53.158;6.614;2023-05-16T12:40:17;16.10;99.90
52615;DHT22;38508;53.158;6.614;2023-05-16T12:42:48;16.20;99.90
52615;DHT22;38508;53.158;6.614;2023-05-16T12:45:15;16.30;99.90
52615;DHT22;38508;53.158;6.614;2023-05-16T12:47:44;16.20;99.90
52615;DHT22;38508;53.158;6.614;2023-05-16T12:50:13;16.10;99.90
52615;DHT22;38508;53.158;6.614;2023-05-16T12:52:51;16.00;99.90
52615;DHT22;38508;53.158;6.614;2023-05-16T12:55:21;15.70;99.90
52615;DHT22;38508;53.158;6.614;2023-05-16T12:57:48;15.40;99.90
52615;DHT22;38508;53.158;6.614;2023-05-16T13:00:16;15.00;99.90
52615;DHT22;38508;53.158;6.614;2023-05-16T13:02:47;14.90;99.90
52615;DHT22;38508;53.158;6.614;2023-05-16T13:05:13;14.60;99.90
52615;DHT22;38508;53.158;6.614;2023-05-16T13:07:38;14.50;99.90
52615;DHT22;38508;53.158;6.614;2023-05-16T13:10:09;14.60;99.90
52615;DHT22;38508;53.158;6.614;2023-05-16T13:12:36;14.90;99.90
52615;DHT22;38508;53.158;6.614;2023-05-16T13:15:03;15.50;99.90
52615;DHT22;38508;53.158;6.614;2023-05-16T13:17:29;16.00;99.90
52615;DHT22;38508;53.158;6.614;2023-05-16T13:19:55;16.50;99.90
52615;DHT22;38508;53.158;6.614;2023-05-16T13:22:21;16.40;99.90
52615;DHT22;38508;53.158;6.614;2023-05-16T13:24:46;16.40;99.90
52615;DHT22;38508;53.158;6.614;2023-05-16T13:27:15;16.10;99.90
52615;DHT22;38508;53.158;6.614;2023-05-16T13:29:42;16.10;99.90
52615;DHT22;38508;53.158;6.614;2023-05-16T13:32:08;16.10;99.90
52615;DHT22;38508;53.158;6.614;2023-05-16T13:34:33;15.90;99.90
52615;DHT22;38508;53.158;6.614;2023-05-16T13:36:59;15.90;99.90
52615;DHT22;38508;53.158;6.614;2023-05-16T13:39:25;15.60;99.90
52615;DHT22;38508;53.158;6.614;2023-05-16T13:41:51;15.10;99.90
52615;DHT22;38508;53.158;6.614;2023-05-16T13:44:17;14.90;99.90
52615;DHT22;38508;53.158;6.614;2023-05-16T13:46:43;14.70;99.90
52615;DHT22;38508;53.158;6.614;2023-05-16T13:49:08;14.80;99.90
52615;DHT22;38508;53.158;6.614;2023-05-16T13:51:34;14.70;99.90
52615;DHT22;38508;53.158;6.614;2023-05-16T13:54:00;14.80;99.90
52615;DHT22;38508;53.158;6.614;2023-05-16T13:56:26;14.90;99.90
52615;DHT22;38508;53.158;6.614;2023-05-16T13:58:51;14.80;99.90
52615;DHT22;38508;53.158;6.614;2023-05-16T14:01:17;14.70;99.90
52615;DHT22;38508;53.158;6.614;2023-05-16T14:03:43;14.50;99.90
52615;DHT22;38508;53.158;6.614;2023-05-16T14:06:08;14.60;99.90
52615;DHT22;38508;53.158;6.614;2023-05-16T14:08:34;14.40;99.90
52615;DHT22;38508;53.158;6.614;2023-05-16T14:11:00;14.70;99.90
52615;DHT22;38508;53.158;6.614;2023-05-16T14:13:26;14.80;99.90
52615;DHT22;38508;53.158;6.614;2023-05-16T14:15:52;15.10;99.90
52615;DHT22;38508;53.158;6.614;2023-05-16T14:18:17;15.20;99.90
52615;DHT22;38508;53.158;6.614;2023-05-16T14:20:43;15.10;99.90
52615;DHT22;38508;53.158;6.614;2023-05-16T14:23:08;15.20;99.90
52615;DHT22;38508;53.158;6.614;2023-05-16T14:25:34;15.10;99.90
52615;DHT22;38508;53.158;6.614;2023-05-16T14:28:00;14.60;99.90
52615;DHT22;38508;53.158;6.614;2023-05-16T14:30:26;14.20;99.90
52615;DHT22;38508;53.158;6.614;2023-05-16T14:32:52;14.20;99.90
52615;DHT22;38508;53.158;6.614;2023-05-16T14:35:17;14.10;99.90
52615;DHT22;38508;53.158;6.614;2023-05-16T14:37:43;14.20;99.90
52615;DHT22;38508;53.158;6.614;2023-05-16T14:40:09;14.20;99.90
52615;DHT22;38508;53.158;6.614;2023-05-16T14:42:35;14.20;99.90
52615;DHT22;38508;53.158;6.614;2023-05-16T14:45:01;14.30;99.90
52615;DHT22;38508;53.158;6.614;2023-05-16T14:47:26;14.30;99.90
52615;DHT22;38508;53.158;6.614;2023-05-16T14:49:53;14.20;99.90
52615;DHT22;38508;53.158;6.614;2023-05-16T14:52:20;14.20;99.90
52615;DHT22;38508;53.158;6.614;2023-05-16T14:54:46;14.40;99.90
52615;DHT22;38508;53.158;6.614;2023-05-16T14:57:13;14.20;99.90
52615;DHT22;38508;53.158;6.614;2023-05-16T14:59:40;14.20;99.90
52615;DHT22;38508;53.158;6.614;2023-05-16T15:02:06;14.40;99.90
52615;DHT22;38508;53.158;6.614;2023-05-16T15:04:32;14.60;99.90
52615;DHT22;38508;53.158;6.614;2023-05-16T15:06:57;14.70;99.90
52615;DHT22;38508;53.158;6.614;2023-05-16T15:09:23;14.90;99.90
52615;DHT22;38508;53.158;6.614;2023-05-16T15:11:50;14.90;99.90
52615;DHT22;38508;53.158;6.614;2023-05-16T15:14:16;15.00;99.90
52615;DHT22;38508;53.158;6.614;2023-05-16T15:16:42;15.00;99.90
52615;DHT22;38508;53.158;6.614;2023-05-16T15:19:07;15.20;99.90
52615;DHT22;38508;53.158;6.614;2023-05-16T15:21:33;15.30;99.90
52615;DHT22;38508;53.158;6.614;2023-05-16T15:23:59;15.00;99.90
52615;DHT22;38508;53.158;6.614;2023-05-16T15:26:25;14.70;99.90
52615;DHT22;38508;53.158;6.614;2023-05-16T15:28:50;14.70;99.90
52615;DHT22;38508;53.158;6.614;2023-05-16T15:31:16;14.90;99.90
52615;DHT22;38508;53.158;6.614;2023-05-16T15:33:42;15.10;99.90
52615;DHT22;38508;53.158;6.614;2023-05-16T15:36:09;15.20;99.90
52615;DHT22;38508;53.158;6.614;2023-05-16T15:38:35;15.00;99.90
52615;DHT22;38508;53.158;6.614;2023-05-16T15:41:01;14.70;99.90